sensor_id;sensor_type;location;lat;lon;timestamp;P1;durP1;ratioP1;P2;durP2;ratioP2
66946;SDS011;53853;51.982;5.928;2024-01-15T00:00:38;6.20;;;2.13;;
66946;SDS011;53853;51.982;5.928;2024-01-15T00:03:08;6.72;;;2.65;;
66946;SDS011;53853;51.982;5.928;2024-01-15T00:05:46;4.38;;;1.45;;
66946;SDS011;53853;51.982;5.928;2024-01-15T00:08:16;4.35;;;1.60;;
66946;SDS011;53853;51.982;5.928;2024-01-15T00:10:46;6.18;;;1.70;;
66946;SDS011;53853;51.982;5.928;2024-01-15T00:13:15;4.88;;;1.85;;
66946;SDS011;53853;51.982;5.928;2024-01-15T00:15:45;4.72;;;1.95;;
66946;SDS011;53853;51.982;5.928;2024-01-15T00:18:15;4.28;;;1.33;;
66946;SDS011;53853;51.982;5.928;2024-01-15T00:20:48;6.78;;;1.98;;
66946;SDS011;53853;51.982;5.928;2024-01-15T00:23:18;5.60;;;2.03;;
66946;SDS011;53853;51.982;5.928;2024-01-15T00:25:47;5.22;;;2.00;;
66946;SDS011;53853;51.982;5.928;2024-01-15T00:28:19;4.55;;;2.05;;
66946;SDS011;53853;51.982;5.928;2024-01-15T00:30:49;5.95;;;1.77;;
66946;SDS011;53853;51.982;5.928;2024-01-15T00:33:19;7.43;;;2.03;;
66946;SDS011;53853;51.982;5.928;2024-01-15T00:35:51;6.18;;;2.03;;
66946;SDS011;53853;51.982;5.928;2024-01-15T00:38:21;7.65;;;2.10;;
66946;SDS011;53853;51.982;5.928;2024-01-15T00:40:51;5.20;;;2.25;;
66946;SDS011;53853;51.982;5.928;2024-01-15T00:43:21;5.45;;;2.20;;
66946;SDS011;53853;51.982;5.928;2024-01-15T00:45:51;9.00;;;2.35;;
66946;SDS011;53853;51.982;5.928;2024-01-15T00:48:21;14.95;;;2.30;;
66946;SDS011;53853;51.982;5.928;2024-01-15T00:50:53;4.55;;;1.95;;
66946;SDS011;53853;51.982;5.928;2024-01-15T00:53:23;5.55;;;2.55;;
66946;SDS011;53853;51.982;5.928;2024-01-15T00:55:54;4.75;;;2.03;;
66946;SDS011;53853;51.982;5.928;2024-01-15T00:58:23;5.05;;;1.52;;
66946;SDS011;53853;51.982;5.928;2024-01-15T01:00:54;11.63;;;2.90;;
66946;SDS011;53853;51.982;5.928;2024-01-15T01:03:23;5.15;;;1.73;;
66946;SDS011;53853;51.982;5.928;2024-01-15T01:05:56;6.15;;;1.85;;
66946;SDS011;53853;51.982;5.928;2024-01-15T01:08:26;7.38;;;2.35;;
66946;SDS011;53853;51.982;5.928;2024-01-15T01:10:56;4.30;;;1.83;;
66946;SDS011;53853;51.982;5.928;2024-01-15T01:13:26;5.25;;;1.70;;
66946;SDS011;53853;51.982;5.928;2024-01-15T01:15:56;10.52;;;2.05;;
66946;SDS011;53853;51.982;5.928;2024-01-15T01:18:26;10.85;;;1.90;;
66946;SDS011;53853;51.982;5.928;2024-01-15T01:20:58;6.80;;;2.08;;
66946;SDS011;53853;51.982;5.928;2024-01-15T01:23:28;4.60;;;1.90;;
66946;SDS011;53853;51.982;5.928;2024-01-15T01:25:58;6.43;;;2.13;;
66946;SDS011;53853;51.982;5.928;2024-01-15T01:28:28;12.07;;;1.90;;
66946;SDS011;53853;51.982;5.928;2024-01-15T01:30:58;8.32;;;1.90;;
66946;SDS011;53853;51.982;5.928;2024-01-15T01:33:28;5.50;;;1.30;;
66946;SDS011;53853;51.982;5.928;2024-01-15T01:36:00;9.70;;;2.05;;
66946;SDS011;53853;51.982;5.928;2024-01-15T01:38:35;6.47;;;2.10;;
66946;SDS011;53853;51.982;5.928;2024-01-15T01:41:05;7.97;;;2.67;;
66946;SDS011;53853;51.982;5.928;2024-01-15T01:43:35;5.50;;;2.40;;
66946;SDS011;53853;51.982;5.928;2024-01-15T01:46:05;6.07;;;2.08;;
66946;SDS011;53853;51.982;5.928;2024-01-15T01:48:36;5.78;;;2.03;;
66946;SDS011;53853;51.982;5.928;2024-01-15T01:51:08;8.07;;;2.17;;
66946;SDS011;53853;51.982;5.928;2024-01-15T01:53:39;3.78;;;1.88;;
66946;SDS011;53853;51.982;5.928;2024-01-15T01:56:10;8.88;;;2.38;;
66946;SDS011;53853;51.982;5.928;2024-01-15T01:58:40;5.07;;;1.55;;
66946;SDS011;53853;51.982;5.928;2024-01-15T02:01:11;4.60;;;2.10;;
66946;SDS011;53853;51.982;5.928;2024-01-15T02:03:41;8.32;;;2.83;;
66946;SDS011;53853;51.982;5.928;2024-01-15T02:06:14;11.73;;;3.70;;
66946;SDS011;53853;51.982;5.928;2024-01-15T02:08:44;6.65;;;2.78;;
66946;SDS011;53853;51.982;5.928;2024-01-15T02:11:14;8.73;;;1.88;;
66946;SDS011;53853;51.982;5.928;2024-01-15T02:13:43;6.88;;;2.00;;
66946;SDS011;53853;51.982;5.928;2024-01-15T02:16:13;4.10;;;1.77;;
66946;SDS011;53853;51.982;5.928;2024-01-15T02:18:44;5.00;;;1.73;;
66946;SDS011;53853;51.982;5.928;2024-01-15T02:21:17;5.40;;;2.05;;
66946;SDS011;53853;51.982;5.928;2024-01-15T02:23:50;10.13;;;2.38;;
66946;SDS011;53853;51.982;5.928;2024-01-15T02:26:19;4.60;;;1.67;;
66946;SDS011;53853;51.982;5.928;2024-01-15T02:28:50;10.35;;;2.17;;
66946;SDS011;53853;51.982;5.928;2024-01-15T02:31:20;3.75;;;2.22;;
66946;SDS011;53853;51.982;5.928;2024-01-15T02:33:50;6.78;;;1.70;;
66946;SDS011;53853;51.982;5.928;2024-01-15T02:36:20;8.18;;;2.38;;
66946;SDS011;53853;51.982;5.928;2024-01-15T02:38:52;13.23;;;3.20;;
66946;SDS011;53853;51.982;5.928;2024-01-15T02:41:22;4.28;;;1.92;;
66946;SDS011;53853;51.982;5.928;2024-01-15T02:43:52;11.73;;;2.28;;
66946;SDS011;53853;51.982;5.928;2024-01-15T02:46:22;8.52;;;2.45;;
66946;SDS011;53853;51.982;5.928;2024-01-15T02:48:51;8.32;;;2.40;;
66946;SDS011;53853;51.982;5.928;2024-01-15T02:51:21;10.57;;;2.85;;
66946;SDS011;53853;51.982;5.928;2024-01-15T02:53:54;9.98;;;2.60;;
66946;SDS011;53853;51.982;5.928;2024-01-15T02:56:24;11.05;;;2.78;;
66946;SDS011;53853;51.982;5.928;2024-01-15T02:58:53;10.07;;;2.20;;
66946;SDS011;53853;51.982;5.928;2024-01-15T03:01:23;7.72;;;2.00;;
66946;SDS011;53853;51.982;5.928;2024-01-15T03:03:53;5.93;;;1.80;;
66946;SDS011;53853;51.982;5.928;2024-01-15T03:06:23;9.75;;;3.00;;
66946;SDS011;53853;51.982;5.928;2024-01-15T03:08:56;4.57;;;1.70;;
66946;SDS011;53853;51.982;5.928;2024-01-15T03:11:26;8.27;;;2.30;;
66946;SDS011;53853;51.982;5.928;2024-01-15T03:13:55;5.75;;;2.03;;
66946;SDS011;53853;51.982;5.928;2024-01-15T03:16:25;6.85;;;1.70;;
66946;SDS011;53853;51.982;5.928;2024-01-15T03:18:55;3.80;;;1.63;;
66946;SDS011;53853;51.982;5.928;2024-01-15T03:21:25;9.65;;;2.63;;
66946;SDS011;53853;51.982;5.928;2024-01-15T03:23:57;10.70;;;2.78;;
66946;SDS011;53853;51.982;5.928;2024-01-15T03:26:27;5.05;;;1.70;;
66946;SDS011;53853;51.982;5.928;2024-01-15T03:28:57;9.07;;;2.10;;
66946;SDS011;53853;51.982;5.928;2024-01-15T03:31:27;8.85;;;2.33;;
66946;SDS011;53853;51.982;5.928;2024-01-15T03:33:57;8.30;;;2.08;;
66946;SDS011;53853;51.982;5.928;2024-01-15T03:36:27;8.93;;;2.40;;
66946;SDS011;53853;51.982;5.928;2024-01-15T03:38:59;6.00;;;1.92;;
66946;SDS011;53853;51.982;5.928;2024-01-15T03:41:29;10.75;;;2.40;;
66946;SDS011;53853;51.982;5.928;2024-01-15T03:43:59;9.95;;;3.05;;
66946;SDS011;53853;51.982;5.928;2024-01-15T03:46:29;8.07;;;2.40;;
66946;SDS011;53853;51.982;5.928;2024-01-15T03:48:59;7.68;;;2.45;;
66946;SDS011;53853;51.982;5.928;2024-01-15T03:51:29;7.20;;;3.10;;
66946;SDS011;53853;51.982;5.928;2024-01-15T03:54:01;9.65;;;2.85;;
66946;SDS011;53853;51.982;5.928;2024-01-15T03:56:31;8.10;;;1.85;;
66946;SDS011;53853;51.982;5.928;2024-01-15T03:59:01;9.23;;;2.67;;
66946;SDS011;53853;51.982;5.928;2024-01-15T04:01:31;7.45;;;1.77;;
66946;SDS011;53853;51.982;5.928;2024-01-15T04:04:01;8.82;;;2.10;;
66946;SDS011;53853;51.982;5.928;2024-01-15T04:06:31;3.17;;;1.42;;
66946;SDS011;53853;51.982;5.928;2024-01-15T04:09:03;6.05;;;1.60;;
66946;SDS011;53853;51.982;5.928;2024-01-15T04:11:33;4.75;;;1.75;;
66946;SDS011;53853;51.982;5.928;2024-01-15T04:14:03;5.22;;;1.90;;
66946;SDS011;53853;51.982;5.928;2024-01-15T04:16:33;5.75;;;1.92;;
66946;SDS011;53853;51.982;5.928;2024-01-15T04:19:03;7.03;;;1.98;;
66946;SDS011;53853;51.982;5.928;2024-01-15T04:21:33;10.57;;;2.17;;
66946;SDS011;53853;51.982;5.928;2024-01-15T04:24:05;7.40;;;2.17;;
66946;SDS011;53853;51.982;5.928;2024-01-15T04:26:35;4.57;;;2.28;;
66946;SDS011;53853;51.982;5.928;2024-01-15T04:29:05;10.52;;;2.60;;
66946;SDS011;53853;51.982;5.928;2024-01-15T04:31:35;7.00;;;1.90;;
66946;SDS011;53853;51.982;5.928;2024-01-15T04:34:05;6.82;;;2.00;;
66946;SDS011;53853;51.982;5.928;2024-01-15T04:36:38;7.43;;;1.63;;
66946;SDS011;53853;51.982;5.928;2024-01-15T04:39:11;7.07;;;1.80;;
66946;SDS011;53853;51.982;5.928;2024-01-15T04:41:41;11.40;;;2.97;;
66946;SDS011;53853;51.982;5.928;2024-01-15T04:44:11;8.52;;;2.17;;
66946;SDS011;53853;51.982;5.928;2024-01-15T04:46:40;7.40;;;2.35;;
66946;SDS011;53853;51.982;5.928;2024-01-15T04:49:11;6.15;;;2.33;;
66946;SDS011;53853;51.982;5.928;2024-01-15T04:51:41;9.00;;;2.38;;
66946;SDS011;53853;51.982;5.928;2024-01-15T04:54:13;9.50;;;2.67;;
66946;SDS011;53853;51.982;5.928;2024-01-15T04:56:44;12.10;;;3.30;;
66946;SDS011;53853;51.982;5.928;2024-01-15T04:59:14;13.88;;;3.70;;
66946;SDS011;53853;51.982;5.928;2024-01-15T05:01:44;8.43;;;2.25;;
66946;SDS011;53853;51.982;5.928;2024-01-15T05:04:14;5.50;;;2.83;;
66946;SDS011;53853;51.982;5.928;2024-01-15T05:06:44;8.25;;;2.17;;
66946;SDS011;53853;51.982;5.928;2024-01-15T05:09:17;5.45;;;2.00;;
66946;SDS011;53853;51.982;5.928;2024-01-15T05:11:47;8.00;;;2.55;;
66946;SDS011;53853;51.982;5.928;2024-01-15T05:14:16;12.20;;;2.20;;
66946;SDS011;53853;51.982;5.928;2024-01-15T05:16:46;7.93;;;2.47;;
66946;SDS011;53853;51.982;5.928;2024-01-15T05:19:17;8.90;;;2.00;;
66946;SDS011;53853;51.982;5.928;2024-01-15T05:21:47;12.05;;;2.47;;
66946;SDS011;53853;51.982;5.928;2024-01-15T05:24:20;11.23;;;2.95;;
66946;SDS011;53853;51.982;5.928;2024-01-15T05:26:52;10.95;;;2.17;;
66946;SDS011;53853;51.982;5.928;2024-01-15T05:29:22;10.68;;;2.30;;
66946;SDS011;53853;51.982;5.928;2024-01-15T05:31:52;11.43;;;2.42;;
66946;SDS011;53853;51.982;5.928;2024-01-15T05:34:22;8.43;;;2.10;;
66946;SDS011;53853;51.982;5.928;2024-01-15T05:36:52;15.32;;;2.25;;
66946;SDS011;53853;51.982;5.928;2024-01-15T05:39:24;7.78;;;2.20;;
66946;SDS011;53853;51.982;5.928;2024-01-15T05:41:54;9.85;;;2.75;;
66946;SDS011;53853;51.982;5.928;2024-01-15T05:44:24;10.05;;;2.28;;
66946;SDS011;53853;51.982;5.928;2024-01-15T05:46:54;9.95;;;2.75;;
66946;SDS011;53853;51.982;5.928;2024-01-15T05:49:24;6.88;;;2.25;;
66946;SDS011;53853;51.982;5.928;2024-01-15T05:51:54;10.85;;;2.92;;
66946;SDS011;53853;51.982;5.928;2024-01-15T05:54:27;7.30;;;1.80;;
66946;SDS011;53853;51.982;5.928;2024-01-15T05:56:57;3.80;;;1.45;;
66946;SDS011;53853;51.982;5.928;2024-01-15T05:59:27;6.05;;;1.70;;
66946;SDS011;53853;51.982;5.928;2024-01-15T06:02:00;3.50;;;1.90;;
66946;SDS011;53853;51.982;5.928;2024-01-15T06:04:29;6.18;;;2.22;;
66946;SDS011;53853;51.982;5.928;2024-01-15T06:06:59;10.77;;;3.15;;
66946;SDS011;53853;51.982;5.928;2024-01-15T06:09:32;8.07;;;2.08;;
66946;SDS011;53853;51.982;5.928;2024-01-15T06:12:02;2.85;;;1.80;;
66946;SDS011;53853;51.982;5.928;2024-01-15T06:14:32;4.18;;;2.25;;
66946;SDS011;53853;51.982;5.928;2024-01-15T06:17:02;5.03;;;1.95;;
66946;SDS011;53853;51.982;5.928;2024-01-15T06:19:32;7.30;;;2.28;;
66946;SDS011;53853;51.982;5.928;2024-01-15T06:22:02;7.88;;;2.42;;
66946;SDS011;53853;51.982;5.928;2024-01-15T06:24:35;5.32;;;2.17;;
66946;SDS011;53853;51.982;5.928;2024-01-15T06:27:04;5.40;;;2.00;;
66946;SDS011;53853;51.982;5.928;2024-01-15T06:29:36;6.93;;;1.92;;
66946;SDS011;53853;51.982;5.928;2024-01-15T06:32:07;6.55;;;1.92;;
66946;SDS011;53853;51.982;5.928;2024-01-15T06:34:36;8.40;;;2.00;;
66946;SDS011;53853;51.982;5.928;2024-01-15T06:37:06;4.55;;;1.58;;
66946;SDS011;53853;51.982;5.928;2024-01-15T06:39:39;6.22;;;2.75;;
66946;SDS011;53853;51.982;5.928;2024-01-15T06:42:09;3.95;;;2.20;;
66946;SDS011;53853;51.982;5.928;2024-01-15T06:44:39;6.30;;;1.98;;
66946;SDS011;53853;51.982;5.928;2024-01-15T06:47:09;5.68;;;2.22;;
66946;SDS011;53853;51.982;5.928;2024-01-15T06:49:40;4.43;;;1.70;;
66946;SDS011;53853;51.982;5.928;2024-01-15T06:52:10;3.10;;;1.83;;
66946;SDS011;53853;51.982;5.928;2024-01-15T06:54:42;6.38;;;2.10;;
66946;SDS011;53853;51.982;5.928;2024-01-15T06:57:13;4.80;;;1.80;;
66946;SDS011;53853;51.982;5.928;2024-01-15T06:59:45;2.63;;;1.50;;
66946;SDS011;53853;51.982;5.928;2024-01-15T07:02:15;2.65;;;1.55;;
66946;SDS011;53853;51.982;5.928;2024-01-15T07:04:45;4.20;;;2.50;;
66946;SDS011;53853;51.982;5.928;2024-01-15T07:07:15;2.95;;;1.95;;
66946;SDS011;53853;51.982;5.928;2024-01-15T07:09:48;6.88;;;2.78;;
66946;SDS011;53853;51.982;5.928;2024-01-15T07:12:18;6.32;;;3.53;;
66946;SDS011;53853;51.982;5.928;2024-01-15T07:14:48;4.75;;;3.13;;
66946;SDS011;53853;51.982;5.928;2024-01-15T07:17:18;3.70;;;2.75;;
66946;SDS011;53853;51.982;5.928;2024-01-15T07:19:48;5.68;;;5.07;;
66946;SDS011;53853;51.982;5.928;2024-01-15T07:22:18;7.05;;;5.07;;
66946;SDS011;53853;51.982;5.928;2024-01-15T07:24:50;6.28;;;4.93;;
66946;SDS011;53853;51.982;5.928;2024-01-15T07:27:20;6.35;;;5.15;;
66946;SDS011;53853;51.982;5.928;2024-01-15T07:29:50;8.05;;;6.10;;
66946;SDS011;53853;51.982;5.928;2024-01-15T07:32:20;6.95;;;5.18;;
66946;SDS011;53853;51.982;5.928;2024-01-15T07:34:49;4.70;;;4.13;;
66946;SDS011;53853;51.982;5.928;2024-01-15T07:37:19;6.93;;;5.53;;
66946;SDS011;53853;51.982;5.928;2024-01-15T07:39:52;7.97;;;5.70;;
66946;SDS011;53853;51.982;5.928;2024-01-15T07:42:22;5.88;;;5.28;;
66946;SDS011;53853;51.982;5.928;2024-01-15T07:44:52;6.00;;;5.40;;
66946;SDS011;53853;51.982;5.928;2024-01-15T07:47:22;5.85;;;4.72;;
66946;SDS011;53853;51.982;5.928;2024-01-15T07:49:52;4.45;;;4.05;;
66946;SDS011;53853;51.982;5.928;2024-01-15T07:52:22;6.10;;;5.47;;
66946;SDS011;53853;51.982;5.928;2024-01-15T07:54:54;6.35;;;5.25;;
66946;SDS011;53853;51.982;5.928;2024-01-15T07:57:25;6.18;;;5.03;;
66946;SDS011;53853;51.982;5.928;2024-01-15T07:59:55;5.55;;;4.72;;
66946;SDS011;53853;51.982;5.928;2024-01-15T08:02:25;5.03;;;4.35;;
66946;SDS011;53853;51.982;5.928;2024-01-15T08:04:55;4.65;;;4.18;;
66946;SDS011;53853;51.982;5.928;2024-01-15T08:07:25;6.18;;;5.57;;
66946;SDS011;53853;51.982;5.928;2024-01-15T08:09:57;5.25;;;4.75;;
66946;SDS011;53853;51.982;5.928;2024-01-15T08:12:27;5.43;;;4.93;;
66946;SDS011;53853;51.982;5.928;2024-01-15T08:14:57;4.80;;;4.40;;
66946;SDS011;53853;51.982;5.928;2024-01-15T08:17:27;4.63;;;3.80;;
66946;SDS011;53853;51.982;5.928;2024-01-15T08:19:58;5.82;;;3.95;;
66946;SDS011;53853;51.982;5.928;2024-01-15T08:22:30;4.18;;;3.40;;
66946;SDS011;53853;51.982;5.928;2024-01-15T08:25:03;3.58;;;2.78;;
66946;SDS011;53853;51.982;5.928;2024-01-15T08:27:33;4.43;;;3.23;;
66946;SDS011;53853;51.982;5.928;2024-01-15T08:30:07;3.20;;;2.80;;
66946;SDS011;53853;51.982;5.928;2024-01-15T08:32:38;3.40;;;3.10;;
66946;SDS011;53853;51.982;5.928;2024-01-15T08:35:08;4.60;;;3.55;;
66946;SDS011;53853;51.982;5.928;2024-01-15T08:37:38;5.10;;;3.30;;
66946;SDS011;53853;51.982;5.928;2024-01-15T08:40:11;4.57;;;3.00;;
66946;SDS011;53853;51.982;5.928;2024-01-15T08:42:41;4.47;;;2.70;;
66946;SDS011;53853;51.982;5.928;2024-01-15T08:45:11;4.97;;;3.13;;
66946;SDS011;53853;51.982;5.928;2024-01-15T08:47:42;3.38;;;2.55;;
66946;SDS011;53853;51.982;5.928;2024-01-15T08:50:12;3.85;;;2.53;;
66946;SDS011;53853;51.982;5.928;2024-01-15T08:52:42;5.15;;;2.75;;
66946;SDS011;53853;51.982;5.928;2024-01-15T08:55:14;4.25;;;2.97;;
66946;SDS011;53853;51.982;5.928;2024-01-15T08:57:44;3.00;;;2.22;;
66946;SDS011;53853;51.982;5.928;2024-01-15T09:00:15;4.90;;;3.20;;
66946;SDS011;53853;51.982;5.928;2024-01-15T09:02:45;6.25;;;2.92;;
66946;SDS011;53853;51.982;5.928;2024-01-15T09:05:15;5.80;;;2.65;;
66946;SDS011;53853;51.982;5.928;2024-01-15T09:07:45;3.85;;;2.63;;
66946;SDS011;53853;51.982;5.928;2024-01-15T09:10:20;3.78;;;2.63;;
66946;SDS011;53853;51.982;5.928;2024-01-15T09:12:50;4.00;;;2.90;;
66946;SDS011;53853;51.982;5.928;2024-01-15T09:15:20;3.67;;;2.25;;
66946;SDS011;53853;51.982;5.928;2024-01-15T09:17:50;5.25;;;2.45;;
66946;SDS011;53853;51.982;5.928;2024-01-15T09:20:20;7.95;;;3.60;;
66946;SDS011;53853;51.982;5.928;2024-01-15T09:22:49;5.53;;;3.92;;
66946;SDS011;53853;51.982;5.928;2024-01-15T09:25:22;5.32;;;2.85;;
66946;SDS011;53853;51.982;5.928;2024-01-15T09:27:52;6.07;;;3.45;;
66946;SDS011;53853;51.982;5.928;2024-01-15T09:30:22;7.25;;;3.72;;
66946;SDS011;53853;51.982;5.928;2024-01-15T09:32:51;6.60;;;2.88;;
66946;SDS011;53853;51.982;5.928;2024-01-15T09:35:21;5.53;;;3.60;;
66946;SDS011;53853;51.982;5.928;2024-01-15T09:37:51;3.65;;;2.83;;
66946;SDS011;53853;51.982;5.928;2024-01-15T09:40:24;8.20;;;3.20;;
66946;SDS011;53853;51.982;5.928;2024-01-15T09:42:59;8.82;;;3.75;;
66946;SDS011;53853;51.982;5.928;2024-01-15T09:45:30;6.78;;;3.65;;
66946;SDS011;53853;51.982;5.928;2024-01-15T09:48:01;6.32;;;3.72;;
66946;SDS011;53853;51.982;5.928;2024-01-15T09:50:31;8.80;;;4.32;;
66946;SDS011;53853;51.982;5.928;2024-01-15T09:53:01;5.72;;;3.25;;
66946;SDS011;53853;51.982;5.928;2024-01-15T09:55:33;4.90;;;2.50;;
66946;SDS011;53853;51.982;5.928;2024-01-15T09:58:04;6.03;;;3.13;;
66946;SDS011;53853;51.982;5.928;2024-01-15T10:00:34;5.45;;;2.45;;
66946;SDS011;53853;51.982;5.928;2024-01-15T10:03:07;7.63;;;2.53;;
66946;SDS011;53853;51.982;5.928;2024-01-15T10:05:38;6.15;;;2.33;;
66946;SDS011;53853;51.982;5.928;2024-01-15T10:08:08;4.13;;;2.17;;
66946;SDS011;53853;51.982;5.928;2024-01-15T10:10:41;4.43;;;1.70;;
66946;SDS011;53853;51.982;5.928;2024-01-15T10:13:11;4.25;;;2.22;;
66946;SDS011;53853;51.982;5.928;2024-01-15T10:15:45;2.90;;;1.55;;
66946;SDS011;53853;51.982;5.928;2024-01-15T10:18:15;5.43;;;2.03;;
66946;SDS011;53853;51.982;5.928;2024-01-15T10:20:45;3.33;;;2.03;;
66946;SDS011;53853;51.982;5.928;2024-01-15T10:23:15;5.45;;;1.60;;
66946;SDS011;53853;51.982;5.928;2024-01-15T10:25:48;6.50;;;1.92;;
66946;SDS011;53853;51.982;5.928;2024-01-15T10:28:18;2.92;;;1.70;;
66946;SDS011;53853;51.982;5.928;2024-01-15T10:30:51;4.05;;;1.40;;
66946;SDS011;53853;51.982;5.928;2024-01-15T10:33:22;3.00;;;1.73;;
66946;SDS011;53853;51.982;5.928;2024-01-15T10:35:53;5.40;;;1.60;;
66946;SDS011;53853;51.982;5.928;2024-01-15T10:38:24;6.45;;;2.00;;
66946;SDS011;53853;51.982;5.928;2024-01-15T10:40:56;9.20;;;2.75;;
66946;SDS011;53853;51.982;5.928;2024-01-15T10:43:26;8.10;;;2.22;;
66946;SDS011;53853;51.982;5.928;2024-01-15T10:45:56;4.57;;;1.95;;
66946;SDS011;53853;51.982;5.928;2024-01-15T10:48:26;7.05;;;2.97;;
66946;SDS011;53853;51.982;5.928;2024-01-15T10:50:57;6.82;;;2.97;;
66946;SDS011;53853;51.982;5.928;2024-01-15T10:53:29;7.10;;;3.22;;
66946;SDS011;53853;51.982;5.928;2024-01-15T10:56:03;5.15;;;2.03;;
66946;SDS011;53853;51.982;5.928;2024-01-15T10:58:34;5.70;;;3.30;;
66946;SDS011;53853;51.982;5.928;2024-01-15T11:01:05;6.75;;;3.08;;
66946;SDS011;53853;51.982;5.928;2024-01-15T11:03:35;4.93;;;3.22;;
66946;SDS011;53853;51.982;5.928;2024-01-15T11:06:15;5.35;;;3.35;;
66946;SDS011;53853;51.982;5.928;2024-01-15T11:08:46;7.07;;;3.35;;
66946;SDS011;53853;51.982;5.928;2024-01-15T11:11:20;6.30;;;3.88;;
66946;SDS011;53853;51.982;5.928;2024-01-15T11:13:50;6.15;;;3.10;;
66946;SDS011;53853;51.982;5.928;2024-01-15T11:16:22;8.18;;;4.97;;
66946;SDS011;53853;51.982;5.928;2024-01-15T11:19:02;11.20;;;3.85;;
66946;SDS011;53853;51.982;5.928;2024-01-15T11:21:34;8.13;;;3.83;;
66946;SDS011;53853;51.982;5.928;2024-01-15T11:24:11;6.50;;;3.22;;
66946;SDS011;53853;51.982;5.928;2024-01-15T11:27:07;7.88;;;4.35;;
66946;SDS011;53853;51.982;5.928;2024-01-15T11:29:38;9.88;;;3.65;;
66946;SDS011;53853;51.982;5.928;2024-01-15T11:32:08;8.50;;;3.78;;
66946;SDS011;53853;51.982;5.928;2024-01-15T11:34:52;9.35;;;3.75;;
66946;SDS011;53853;51.982;5.928;2024-01-15T11:37:20;8.35;;;3.67;;
66946;SDS011;53853;51.982;5.928;2024-01-15T11:39:52;9.32;;;3.40;;
66946;SDS011;53853;51.982;5.928;2024-01-15T11:42:25;8.88;;;4.00;;
66946;SDS011;53853;51.982;5.928;2024-01-15T11:44:55;5.70;;;2.85;;
66946;SDS011;53853;51.982;5.928;2024-01-15T11:47:45;8.30;;;3.50;;
66946;SDS011;53853;51.982;5.928;2024-01-15T11:50:41;8.95;;;3.03;;
66946;SDS011;53853;51.982;5.928;2024-01-15T11:53:21;5.70;;;3.65;;
66946;SDS011;53853;51.982;5.928;2024-01-15T11:56:03;8.00;;;3.28;;
66946;SDS011;53853;51.982;5.928;2024-01-15T11:58:45;6.53;;;2.97;;
66946;SDS011;53853;51.982;5.928;2024-01-15T12:01:16;6.13;;;2.75;;
66946;SDS011;53853;51.982;5.928;2024-01-15T12:03:46;6.65;;;2.63;;
66946;SDS011;53853;51.982;5.928;2024-01-15T12:06:17;10.07;;;3.58;;
66946;SDS011;53853;51.982;5.928;2024-01-15T12:08:49;5.97;;;2.67;;
66946;SDS011;53853;51.982;5.928;2024-01-15T12:11:19;8.52;;;2.83;;
66946;SDS011;53853;51.982;5.928;2024-01-15T12:13:55;10.27;;;2.63;;
66946;SDS011;53853;51.982;5.928;2024-01-15T12:16:25;4.85;;;2.30;;
66946;SDS011;53853;51.982;5.928;2024-01-15T12:18:55;6.97;;;2.50;;
66946;SDS011;53853;51.982;5.928;2024-01-15T12:21:26;7.68;;;2.72;;
66946;SDS011;53853;51.982;5.928;2024-01-15T12:23:56;7.75;;;2.70;;
66946;SDS011;53853;51.982;5.928;2024-01-15T12:26:25;8.73;;;2.75;;
66946;SDS011;53853;51.982;5.928;2024-01-15T12:28:58;13.20;;;2.80;;
66946;SDS011;53853;51.982;5.928;2024-01-15T12:31:30;5.22;;;2.72;;
66946;SDS011;53853;51.982;5.928;2024-01-15T12:34:01;7.65;;;2.33;;
66946;SDS011;53853;51.982;5.928;2024-01-15T12:36:31;5.13;;;1.73;;
66946;SDS011;53853;51.982;5.928;2024-01-15T12:39:01;3.97;;;2.15;;
66946;SDS011;53853;51.982;5.928;2024-01-15T12:41:31;5.80;;;1.95;;
66946;SDS011;53853;51.982;5.928;2024-01-15T12:44:04;7.15;;;2.88;;
66946;SDS011;53853;51.982;5.928;2024-01-15T12:46:34;5.97;;;1.90;;
66946;SDS011;53853;51.982;5.928;2024-01-15T12:49:04;6.97;;;2.40;;
66946;SDS011;53853;51.982;5.928;2024-01-15T12:51:34;5.30;;;2.38;;
66946;SDS011;53853;51.982;5.928;2024-01-15T12:54:04;4.85;;;1.85;;
66946;SDS011;53853;51.982;5.928;2024-01-15T12:56:34;7.43;;;1.98;;
66946;SDS011;53853;51.982;5.928;2024-01-15T12:59:06;2.72;;;1.60;;
66946;SDS011;53853;51.982;5.928;2024-01-15T13:01:37;6.18;;;2.13;;
66946;SDS011;53853;51.982;5.928;2024-01-15T13:04:07;3.83;;;1.70;;
66946;SDS011;53853;51.982;5.928;2024-01-15T13:06:37;4.70;;;2.10;;
66946;SDS011;53853;51.982;5.928;2024-01-15T13:09:07;7.95;;;2.35;;
66946;SDS011;53853;51.982;5.928;2024-01-15T13:11:37;4.88;;;2.28;;
66946;SDS011;53853;51.982;5.928;2024-01-15T13:14:09;4.80;;;1.80;;
66946;SDS011;53853;51.982;5.928;2024-01-15T13:16:40;4.25;;;2.00;;
66946;SDS011;53853;51.982;5.928;2024-01-15T13:19:10;4.22;;;1.63;;
66946;SDS011;53853;51.982;5.928;2024-01-15T13:21:40;8.43;;;2.05;;
66946;SDS011;53853;51.982;5.928;2024-01-15T13:24:10;3.00;;;1.48;;
66946;SDS011;53853;51.982;5.928;2024-01-15T13:26:40;5.32;;;1.83;;
66946;SDS011;53853;51.982;5.928;2024-01-15T13:29:13;5.80;;;1.58;;
66946;SDS011;53853;51.982;5.928;2024-01-15T13:31:42;9.48;;;2.42;;
66946;SDS011;53853;51.982;5.928;2024-01-15T13:34:13;4.78;;;1.58;;
66946;SDS011;53853;51.982;5.928;2024-01-15T13:36:43;6.88;;;2.03;;
66946;SDS011;53853;51.982;5.928;2024-01-15T13:39:13;7.05;;;2.50;;
66946;SDS011;53853;51.982;5.928;2024-01-15T13:41:45;5.93;;;1.42;;
66946;SDS011;53853;51.982;5.928;2024-01-15T13:44:18;4.45;;;2.28;;
66946;SDS011;53853;51.982;5.928;2024-01-15T13:46:48;7.00;;;2.00;;
66946;SDS011;53853;51.982;5.928;2024-01-15T13:49:20;6.60;;;2.15;;
66946;SDS011;53853;51.982;5.928;2024-01-15T13:51:50;5.82;;;2.10;;
66946;SDS011;53853;51.982;5.928;2024-01-15T13:54:20;6.45;;;1.73;;
66946;SDS011;53853;51.982;5.928;2024-01-15T13:56:50;6.15;;;2.30;;
66946;SDS011;53853;51.982;5.928;2024-01-15T13:59:22;2.85;;;1.60;;
66946;SDS011;53853;51.982;5.928;2024-01-15T14:01:52;3.33;;;1.77;;
66946;SDS011;53853;51.982;5.928;2024-01-15T14:04:23;7.68;;;2.22;;
66946;SDS011;53853;51.982;5.928;2024-01-15T14:06:53;6.20;;;2.60;;
66946;SDS011;53853;51.982;5.928;2024-01-15T14:09:23;5.82;;;2.15;;
66946;SDS011;53853;51.982;5.928;2024-01-15T14:11:53;5.68;;;1.70;;
66946;SDS011;53853;51.982;5.928;2024-01-15T14:14:25;9.45;;;2.63;;
66946;SDS011;53853;51.982;5.928;2024-01-15T14:16:55;5.95;;;1.88;;
66946;SDS011;53853;51.982;5.928;2024-01-15T14:19:25;6.90;;;1.83;;
66946;SDS011;53853;51.982;5.928;2024-01-15T14:21:55;4.30;;;2.70;;
66946;SDS011;53853;51.982;5.928;2024-01-15T14:24:25;4.32;;;1.92;;
66946;SDS011;53853;51.982;5.928;2024-01-15T14:26:55;6.38;;;2.50;;
66946;SDS011;53853;51.982;5.928;2024-01-15T14:29:28;6.63;;;1.88;;
66946;SDS011;53853;51.982;5.928;2024-01-15T14:31:58;8.32;;;2.65;;
66946;SDS011;53853;51.982;5.928;2024-01-15T14:34:28;7.72;;;2.63;;
66946;SDS011;53853;51.982;5.928;2024-01-15T14:36:58;6.88;;;2.15;;
66946;SDS011;53853;51.982;5.928;2024-01-15T14:39:28;6.15;;;2.08;;
66946;SDS011;53853;51.982;5.928;2024-01-15T14:42:00;7.50;;;2.50;;
66946;SDS011;53853;51.982;5.928;2024-01-15T14:44:32;5.97;;;2.05;;
66946;SDS011;53853;51.982;5.928;2024-01-15T14:49:33;7.15;;;2.05;;
66946;SDS011;53853;51.982;5.928;2024-01-15T14:52:03;5.03;;;1.77;;
66946;SDS011;53853;51.982;5.928;2024-01-15T14:54:33;6.95;;;2.70;;
66946;SDS011;53853;51.982;5.928;2024-01-15T14:57:04;4.53;;;2.25;;
66946;SDS011;53853;51.982;5.928;2024-01-15T14:59:37;7.28;;;2.30;;
66946;SDS011;53853;51.982;5.928;2024-01-15T15:02:07;4.38;;;2.20;;
66946;SDS011;53853;51.982;5.928;2024-01-15T15:04:37;5.45;;;2.38;;
66946;SDS011;53853;51.982;5.928;2024-01-15T15:07:07;7.25;;;2.47;;
66946;SDS011;53853;51.982;5.928;2024-01-15T15:09:37;7.35;;;2.30;;